sensor_id;sensor_type;location;lat;lon;timestamp;P1;durP1;ratioP1;P2;durP2;ratioP2
42260;SDS011;27926;48.062;7.474;2023-02-07T00:02:03;26.13;;;13.67;;
42260;SDS011;27926;48.062;7.474;2023-02-07T00:04:27;31.93;;;12.87;;
42260;SDS011;27926;48.062;7.474;2023-02-07T00:06:52;22.23;;;12.20;;
42260;SDS011;27926;48.062;7.474;2023-02-07T00:09:16;35.90;;;12.30;;
42260;SDS011;27926;48.062;7.474;2023-02-07T00:11:41;34.13;;;14.77;;
42260;SDS011;27926;48.062;7.474;2023-02-07T00:14:07;35.43;;;14.27;;
42260;SDS011;27926;48.062;7.474;2023-02-07T00:16:34;23.42;;;11.50;;
42260;SDS011;27926;48.062;7.474;2023-02-07T00:18:58;21.33;;;11.20;;
42260;SDS011;27926;48.062;7.474;2023-02-07T00:21:23;21.70;;;11.07;;
42260;SDS011;27926;48.062;7.474;2023-02-07T00:26:14;18.25;;;9.23;;
42260;SDS011;27926;48.062;7.474;2023-02-07T00:31:08;19.23;;;10.18;;
42260;SDS011;27926;48.062;7.474;2023-02-07T00:33:35;19.70;;;9.25;;
42260;SDS011;27926;48.062;7.474;2023-02-07T00:36:02;17.52;;;8.80;;
42260;SDS011;27926;48.062;7.474;2023-02-07T00:38:28;22.17;;;10.15;;
42260;SDS011;27926;48.062;7.474;2023-02-07T00:40:53;19.83;;;10.00;;
42260;SDS011;27926;48.062;7.474;2023-02-07T00:43:18;21.37;;;9.40;;
42260;SDS011;27926;48.062;7.474;2023-02-07T00:45:43;19.47;;;9.77;;
42260;SDS011;27926;48.062;7.474;2023-02-07T00:48:07;23.90;;;9.63;;
42260;SDS011;27926;48.062;7.474;2023-02-07T00:50:32;16.87;;;8.90;;
42260;SDS011;27926;48.062;7.474;2023-02-07T00:52:57;17.70;;;9.00;;
42260;SDS011;27926;48.062;7.474;2023-02-07T00:55:21;21.60;;;8.87;;
42260;SDS011;27926;48.062;7.474;2023-02-07T00:57:46;24.93;;;10.17;;
42260;SDS011;27926;48.062;7.474;2023-02-07T01:00:10;13.40;;;8.43;;
42260;SDS011;27926;48.062;7.474;2023-02-07T01:02:35;14.37;;;8.43;;
42260;SDS011;27926;48.062;7.474;2023-02-07T01:05:00;33.40;;;9.97;;
42260;SDS011;27926;48.062;7.474;2023-02-07T01:07:24;14.20;;;7.50;;
42260;SDS011;27926;48.062;7.474;2023-02-07T01:09:49;19.27;;;8.33;;
42260;SDS011;27926;48.062;7.474;2023-02-07T01:12:14;16.93;;;8.03;;
42260;SDS011;27926;48.062;7.474;2023-02-07T01:14:38;17.50;;;7.43;;
42260;SDS011;27926;48.062;7.474;2023-02-07T01:17:03;16.10;;;7.80;;
42260;SDS011;27926;48.062;7.474;2023-02-07T01:19:27;15.97;;;6.70;;
42260;SDS011;27926;48.062;7.474;2023-02-07T01:21:52;13.77;;;7.20;;
42260;SDS011;27926;48.062;7.474;2023-02-07T01:24:16;14.73;;;7.83;;
42260;SDS011;27926;48.062;7.474;2023-02-07T01:26:41;13.57;;;6.53;;
42260;SDS011;27926;48.062;7.474;2023-02-07T01:29:06;16.67;;;7.47;;
42260;SDS011;27926;48.062;7.474;2023-02-07T01:31:31;10.27;;;6.57;;
42260;SDS011;27926;48.062;7.474;2023-02-07T01:33:57;15.97;;;7.33;;
42260;SDS011;27926;48.062;7.474;2023-02-07T01:36:23;14.02;;;7.43;;
42260;SDS011;27926;48.062;7.474;2023-02-07T01:38:50;14.77;;;7.25;;
42260;SDS011;27926;48.062;7.474;2023-02-07T01:41:16;13.65;;;6.97;;
42260;SDS011;27926;48.062;7.474;2023-02-07T01:43:51;17.33;;;7.37;;
42260;SDS011;27926;48.062;7.474;2023-02-07T01:46:16;12.45;;;6.90;;
42260;SDS011;27926;48.062;7.474;2023-02-07T01:48:44;16.63;;;7.43;;
42260;SDS011;27926;48.062;7.474;2023-02-07T01:51:08;14.50;;;6.80;;
42260;SDS011;27926;48.062;7.474;2023-02-07T01:53:34;14.07;;;7.27;;
42260;SDS011;27926;48.062;7.474;2023-02-07T01:56:02;15.65;;;7.97;;
42260;SDS011;27926;48.062;7.474;2023-02-07T01:58:29;22.77;;;9.07;;
42260;SDS011;27926;48.062;7.474;2023-02-07T02:03:20;17.30;;;7.35;;
42260;SDS011;27926;48.062;7.474;2023-02-07T02:05:45;18.37;;;8.33;;
42260;SDS011;27926;48.062;7.474;2023-02-07T02:08:11;17.90;;;7.85;;
42260;SDS011;27926;48.062;7.474;2023-02-07T02:13:35;15.20;;;7.55;;
42260;SDS011;27926;48.062;7.474;2023-02-07T02:30:39;14.80;;;7.97;;
42260;SDS011;27926;48.062;7.474;2023-02-07T02:38:37;13.38;;;7.78;;
42260;SDS011;27926;48.062;7.474;2023-02-07T02:41:28;13.90;;;7.20;;
42260;SDS011;27926;48.062;7.474;2023-02-07T02:44:10;17.05;;;7.25;;
42260;SDS011;27926;48.062;7.474;2023-02-07T02:46:42;16.70;;;8.50;;
42260;SDS011;27926;48.062;7.474;2023-02-07T02:49:10;17.60;;;6.80;;
42260;SDS011;27926;48.062;7.474;2023-02-07T02:51:38;18.85;;;6.93;;
42260;SDS011;27926;48.062;7.474;2023-02-07T02:54:03;12.60;;;6.57;;
42260;SDS011;27926;48.062;7.474;2023-02-07T02:57:00;10.48;;;6.03;;
42260;SDS011;27926;48.062;7.474;2023-02-07T03:05:01;15.05;;;6.20;;
42260;SDS011;27926;48.062;7.474;2023-02-07T03:10:24;16.13;;;6.53;;
42260;SDS011;27926;48.062;7.474;2023-02-07T03:13:04;13.15;;;6.47;;
42260;SDS011;27926;48.062;7.474;2023-02-07T03:21:00;18.08;;;6.88;;
42260;SDS011;27926;48.062;7.474;2023-02-07T03:23:30;16.48;;;6.75;;
42260;SDS011;27926;48.062;7.474;2023-02-07T03:25:57;13.68;;;7.18;;
42260;SDS011;27926;48.062;7.474;2023-02-07T03:28:24;15.48;;;7.10;;
42260;SDS011;27926;48.062;7.474;2023-02-07T03:30:51;17.85;;;7.53;;
42260;SDS011;27926;48.062;7.474;2023-02-07T03:33:17;16.98;;;7.50;;
42260;SDS011;27926;48.062;7.474;2023-02-07T03:38:13;12.85;;;6.65;;
42260;SDS011;27926;48.062;7.474;2023-02-07T03:40:41;14.93;;;6.68;;
42260;SDS011;27926;48.062;7.474;2023-02-07T03:48:02;13.10;;;6.60;;
42260;SDS011;27926;48.062;7.474;2023-02-07T03:50:27;18.77;;;8.20;;
42260;SDS011;27926;48.062;7.474;2023-02-07T03:52:51;16.23;;;8.43;;
42260;SDS011;27926;48.062;7.474;2023-02-07T03:55:16;13.53;;;7.83;;
42260;SDS011;27926;48.062;7.474;2023-02-07T03:57:40;14.53;;;7.17;;
42260;SDS011;27926;48.062;7.474;2023-02-07T04:00:05;18.67;;;7.60;;
42260;SDS011;27926;48.062;7.474;2023-02-07T04:02:31;16.92;;;7.28;;
42260;SDS011;27926;48.062;7.474;2023-02-07T04:04:55;12.73;;;7.77;;
42260;SDS011;27926;48.062;7.474;2023-02-07T04:07:20;15.13;;;8.23;;
42260;SDS011;27926;48.062;7.474;2023-02-07T04:09:44;13.77;;;7.50;;
42260;SDS011;27926;48.062;7.474;2023-02-07T04:12:09;14.83;;;7.63;;
42260;SDS011;27926;48.062;7.474;2023-02-07T04:14:33;17.07;;;7.43;;
42260;SDS011;27926;48.062;7.474;2023-02-07T04:16:58;17.07;;;7.83;;
42260;SDS011;27926;48.062;7.474;2023-02-07T04:19:23;15.60;;;8.63;;
42260;SDS011;27926;48.062;7.474;2023-02-07T04:21:47;12.63;;;7.43;;
42260;SDS011;27926;48.062;7.474;2023-02-07T04:24:12;15.17;;;7.90;;
42260;SDS011;27926;48.062;7.474;2023-02-07T04:26:37;14.03;;;7.83;;
42260;SDS011;27926;48.062;7.474;2023-02-07T04:29:01;13.67;;;7.13;;
42260;SDS011;27926;48.062;7.474;2023-02-07T04:31:26;13.85;;;7.30;;
42260;SDS011;27926;48.062;7.474;2023-02-07T04:33:51;15.23;;;7.97;;
42260;SDS011;27926;48.062;7.474;2023-02-07T04:36:16;12.00;;;7.53;;
42260;SDS011;27926;48.062;7.474;2023-02-07T04:38:40;13.13;;;7.00;;
42260;SDS011;27926;48.062;7.474;2023-02-07T04:41:05;12.40;;;6.80;;
42260;SDS011;27926;48.062;7.474;2023-02-07T04:43:31;13.90;;;7.07;;
42260;SDS011;27926;48.062;7.474;2023-02-07T04:45:56;9.10;;;5.95;;
42260;SDS011;27926;48.062;7.474;2023-02-07T04:48:21;14.40;;;7.80;;
42260;SDS011;27926;48.062;7.474;2023-02-07T04:50:46;17.80;;;8.43;;
42260;SDS011;27926;48.062;7.474;2023-02-07T04:53:11;18.90;;;7.80;;
42260;SDS011;27926;48.062;7.474;2023-02-07T04:55:35;19.63;;;8.13;;
42260;SDS011;27926;48.062;7.474;2023-02-07T04:58:00;16.87;;;8.60;;
42260;SDS011;27926;48.062;7.474;2023-02-07T05:00:25;15.57;;;8.27;;
42260;SDS011;27926;48.062;7.474;2023-02-07T05:02:49;16.20;;;8.37;;
42260;SDS011;27926;48.062;7.474;2023-02-07T05:05:14;20.00;;;9.13;;
42260;SDS011;27926;48.062;7.474;2023-02-07T05:07:38;18.07;;;8.17;;
42260;SDS011;27926;48.062;7.474;2023-02-07T05:10:03;23.33;;;8.67;;
42260;SDS011;27926;48.062;7.474;2023-02-07T05:12:28;16.70;;;9.03;;
42260;SDS011;27926;48.062;7.474;2023-02-07T05:14:52;24.23;;;9.60;;
42260;SDS011;27926;48.062;7.474;2023-02-07T05:17:17;28.17;;;11.10;;
42260;SDS011;27926;48.062;7.474;2023-02-07T05:19:42;21.90;;;10.40;;
42260;SDS011;27926;48.062;7.474;2023-02-07T05:22:06;22.93;;;10.83;;
42260;SDS011;27926;48.062;7.474;2023-02-07T05:24:31;26.33;;;10.83;;
42260;SDS011;27926;48.062;7.474;2023-02-07T05:26:55;21.77;;;9.57;;
42260;SDS011;27926;48.062;7.474;2023-02-07T05:29:20;20.10;;;9.77;;
42260;SDS011;27926;48.062;7.474;2023-02-07T05:31:45;25.97;;;10.03;;
42260;SDS011;27926;48.062;7.474;2023-02-07T05:34:28;23.38;;;9.88;;
42260;SDS011;27926;48.062;7.474;2023-02-07T05:36:53;20.10;;;10.50;;
42260;SDS011;27926;48.062;7.474;2023-02-07T05:39:18;18.67;;;9.77;;
42260;SDS011;27926;48.062;7.474;2023-02-07T05:41:46;19.87;;;9.03;;
42260;SDS011;27926;48.062;7.474;2023-02-07T05:44:10;16.40;;;9.13;;
42260;SDS011;27926;48.062;7.474;2023-02-07T05:46:35;16.67;;;8.67;;
42260;SDS011;27926;48.062;7.474;2023-02-07T05:48:59;26.23;;;10.00;;
42260;SDS011;27926;48.062;7.474;2023-02-07T05:51:24;20.00;;;8.73;;
42260;SDS011;27926;48.062;7.474;2023-02-07T05:53:49;18.73;;;8.27;;
42260;SDS011;27926;48.062;7.474;2023-02-07T05:56:13;17.23;;;9.50;;
42260;SDS011;27926;48.062;7.474;2023-02-07T05:58:38;21.90;;;9.40;;
42260;SDS011;27926;48.062;7.474;2023-02-07T06:01:02;21.00;;;9.70;;
42260;SDS011;27926;48.062;7.474;2023-02-07T06:03:27;18.93;;;8.40;;
42260;SDS011;27926;48.062;7.474;2023-02-07T06:05:52;20.77;;;8.23;;
42260;SDS011;27926;48.062;7.474;2023-02-07T06:08:16;16.63;;;7.07;;
42260;SDS011;27926;48.062;7.474;2023-02-07T06:10:41;18.03;;;8.50;;
42260;SDS011;27926;48.062;7.474;2023-02-07T06:13:05;15.40;;;7.87;;
42260;SDS011;27926;48.062;7.474;2023-02-07T06:15:30;16.67;;;8.50;;
42260;SDS011;27926;48.062;7.474;2023-02-07T06:17:55;19.17;;;8.77;;
42260;SDS011;27926;48.062;7.474;2023-02-07T06:20:19;18.97;;;7.70;;
42260;SDS011;27926;48.062;7.474;2023-02-07T06:22:44;17.70;;;8.97;;
42260;SDS011;27926;48.062;7.474;2023-02-07T06:25:08;19.50;;;9.97;;
42260;SDS011;27926;48.062;7.474;2023-02-07T06:27:34;21.42;;;9.57;;
42260;SDS011;27926;48.062;7.474;2023-02-07T06:29:59;24.27;;;9.67;;
42260;SDS011;27926;48.062;7.474;2023-02-07T06:32:23;21.47;;;9.07;;
42260;SDS011;27926;48.062;7.474;2023-02-07T06:34:48;22.87;;;11.03;;
42260;SDS011;27926;48.062;7.474;2023-02-07T06:37:13;19.73;;;9.27;;
42260;SDS011;27926;48.062;7.474;2023-02-07T06:39:38;23.90;;;10.40;;
42260;SDS011;27926;48.062;7.474;2023-02-07T06:42:02;23.90;;;10.60;;
42260;SDS011;27926;48.062;7.474;2023-02-07T06:44:29;25.00;;;10.80;;
42260;SDS011;27926;48.062;7.474;2023-02-07T06:46:53;19.33;;;9.87;;
42260;SDS011;27926;48.062;7.474;2023-02-07T06:49:18;20.90;;;12.53;;
42260;SDS011;27926;48.062;7.474;2023-02-07T06:51:42;20.27;;;10.10;;
42260;SDS011;27926;48.062;7.474;2023-02-07T06:54:07;25.67;;;11.43;;
42260;SDS011;27926;48.062;7.474;2023-02-07T06:56:32;18.50;;;10.93;;
42260;SDS011;27926;48.062;7.474;2023-02-07T06:58:57;20.10;;;10.83;;
42260;SDS011;27926;48.062;7.474;2023-02-07T07:01:22;26.13;;;10.53;;
42260;SDS011;27926;48.062;7.474;2023-02-07T07:03:46;26.00;;;11.13;;
42260;SDS011;27926;48.062;7.474;2023-02-07T07:06:11;21.73;;;10.97;;
42260;SDS011;27926;48.062;7.474;2023-02-07T07:08:36;24.17;;;10.65;;
42260;SDS011;27926;48.062;7.474;2023-02-07T07:11:01;19.33;;;9.90;;
42260;SDS011;27926;48.062;7.474;2023-02-07T07:13:25;31.30;;;11.77;;
42260;SDS011;27926;48.062;7.474;2023-02-07T07:15:50;24.97;;;11.97;;
42260;SDS011;27926;48.062;7.474;2023-02-07T07:18:14;20.40;;;10.43;;
42260;SDS011;27926;48.062;7.474;2023-02-07T07:20:39;20.67;;;10.90;;
42260;SDS011;27926;48.062;7.474;2023-02-07T07:23:03;24.40;;;11.33;;
42260;SDS011;27926;48.062;7.474;2023-02-07T07:25:28;21.90;;;10.97;;
42260;SDS011;27926;48.062;7.474;2023-02-07T07:27:53;24.10;;;12.07;;
42260;SDS011;27926;48.062;7.474;2023-02-07T07:30:17;20.80;;;10.47;;
42260;SDS011;27926;48.062;7.474;2023-02-07T07:32:42;26.30;;;12.97;;
42260;SDS011;27926;48.062;7.474;2023-02-07T07:35:07;24.83;;;11.00;;
42260;SDS011;27926;48.062;7.474;2023-02-07T07:37:31;25.00;;;11.93;;
42260;SDS011;27926;48.062;7.474;2023-02-07T07:39:56;26.50;;;12.10;;
42260;SDS011;27926;48.062;7.474;2023-02-07T07:42:21;23.23;;;11.93;;
42260;SDS011;27926;48.062;7.474;2023-02-07T07:44:45;29.43;;;13.13;;
42260;SDS011;27926;48.062;7.474;2023-02-07T07:47:10;26.37;;;12.03;;
42260;SDS011;27926;48.062;7.474;2023-02-07T07:49:36;27.92;;;12.20;;
42260;SDS011;27926;48.062;7.474;2023-02-07T07:52:01;25.97;;;12.77;;
42260;SDS011;27926;48.062;7.474;2023-02-07T07:54:25;23.13;;;11.37;;
42260;SDS011;27926;48.062;7.474;2023-02-07T07:56:50;23.17;;;11.93;;
42260;SDS011;27926;48.062;7.474;2023-02-07T07:59:15;31.47;;;12.43;;
42260;SDS011;27926;48.062;7.474;2023-02-07T08:01:40;24.42;;;12.25;;
42260;SDS011;27926;48.062;7.474;2023-02-07T08:04:04;24.07;;;11.60;;
42260;SDS011;27926;48.062;7.474;2023-02-07T08:06:29;36.40;;;12.60;;
42260;SDS011;27926;48.062;7.474;2023-02-07T08:08:54;26.88;;;12.25;;
42260;SDS011;27926;48.062;7.474;2023-02-07T08:11:19;28.07;;;10.93;;
42260;SDS011;27926;48.062;7.474;2023-02-07T08:13:44;25.47;;;12.17;;
42260;SDS011;27926;48.062;7.474;2023-02-07T08:16:09;24.37;;;11.57;;
42260;SDS011;27926;48.062;7.474;2023-02-07T08:18:37;20.88;;;10.75;;
42260;SDS011;27926;48.062;7.474;2023-02-07T08:21:02;22.27;;;11.37;;
42260;SDS011;27926;48.062;7.474;2023-02-07T08:23:27;24.73;;;12.17;;
42260;SDS011;27926;48.062;7.474;2023-02-07T08:25:51;22.38;;;11.32;;
42260;SDS011;27926;48.062;7.474;2023-02-07T08:28:16;28.27;;;12.80;;
42260;SDS011;27926;48.062;7.474;2023-02-07T08:30:41;26.02;;;11.43;;
42260;SDS011;27926;48.062;7.474;2023-02-07T08:33:06;21.70;;;11.33;;
42260;SDS011;27926;48.062;7.474;2023-02-07T08:35:31;21.63;;;11.17;;
42260;SDS011;27926;48.062;7.474;2023-02-07T08:37:56;27.43;;;12.27;;
42260;SDS011;27926;48.062;7.474;2023-02-07T08:40:21;26.27;;;11.57;;
42260;SDS011;27926;48.062;7.474;2023-02-07T08:42:46;21.67;;;11.90;;
42260;SDS011;27926;48.062;7.474;2023-02-07T08:45:11;22.58;;;12.25;;
42260;SDS011;27926;48.062;7.474;2023-02-07T08:47:35;21.17;;;11.57;;
42260;SDS011;27926;48.062;7.474;2023-02-07T08:50:00;25.87;;;12.97;;
42260;SDS011;27926;48.062;7.474;2023-02-07T08:52:25;28.47;;;12.63;;
42260;SDS011;27926;48.062;7.474;2023-02-07T08:54:49;24.93;;;12.37;;
42260;SDS011;27926;48.062;7.474;2023-02-07T08:57:14;25.10;;;11.90;;
42260;SDS011;27926;48.062;7.474;2023-02-07T08:59:39;30.17;;;12.67;;
42260;SDS011;27926;48.062;7.474;2023-02-07T09:02:03;28.10;;;13.30;;
42260;SDS011;27926;48.062;7.474;2023-02-07T09:04:28;36.27;;;13.00;;
42260;SDS011;27926;48.062;7.474;2023-02-07T09:06:52;29.93;;;13.00;;
42260;SDS011;27926;48.062;7.474;2023-02-07T09:09:17;34.60;;;14.87;;
42260;SDS011;27926;48.062;7.474;2023-02-07T09:11:43;25.93;;;13.07;;
42260;SDS011;27926;48.062;7.474;2023-02-07T09:14:08;28.05;;;14.13;;
42260;SDS011;27926;48.062;7.474;2023-02-07T09:16:32;28.67;;;14.63;;
42260;SDS011;27926;48.062;7.474;2023-02-07T09:18:57;24.00;;;12.03;;
42260;SDS011;27926;48.062;7.474;2023-02-07T09:21:22;34.63;;;12.10;;
42260;SDS011;27926;48.062;7.474;2023-02-07T09:23:47;22.83;;;11.90;;
42260;SDS011;27926;48.062;7.474;2023-02-07T09:26:19;29.90;;;13.50;;
42260;SDS011;27926;48.062;7.474;2023-02-07T09:28:44;22.30;;;11.90;;
42260;SDS011;27926;48.062;7.474;2023-02-07T09:31:10;26.90;;;12.60;;
42260;SDS011;27926;48.062;7.474;2023-02-07T09:36:00;32.15;;;15.00;;
42260;SDS011;27926;48.062;7.474;2023-02-07T09:38:25;28.73;;;12.87;;
42260;SDS011;27926;48.062;7.474;2023-02-07T09:40:50;26.13;;;13.70;;
42260;SDS011;27926;48.062;7.474;2023-02-07T09:45:47;25.92;;;13.48;;
42260;SDS011;27926;48.062;7.474;2023-02-07T09:48:21;25.83;;;13.52;;
42260;SDS011;27926;48.062;7.474;2023-02-07T09:51:00;37.33;;;14.13;;
42260;SDS011;27926;48.062;7.474;2023-02-07T09:53:45;27.02;;;13.48;;
42260;SDS011;27926;48.062;7.474;2023-02-07T09:56:25;29.63;;;13.38;;
42260;SDS011;27926;48.062;7.474;2023-02-07T09:58:55;31.50;;;14.07;;
42260;SDS011;27926;48.062;7.474;2023-02-07T10:01:26;27.17;;;13.05;;
42260;SDS011;27926;48.062;7.474;2023-02-07T10:06:41;33.13;;;13.45;;
42260;SDS011;27926;48.062;7.474;2023-02-07T10:09:09;32.53;;;13.23;;
42260;SDS011;27926;48.062;7.474;2023-02-07T10:22:35;26.13;;;13.20;;
42260;SDS011;27926;48.062;7.474;2023-02-07T10:25:27;26.75;;;12.98;;
42260;SDS011;27926;48.062;7.474;2023-02-07T10:30:42;30.75;;;13.18;;
42260;SDS011;27926;48.062;7.474;2023-02-07T10:33:16;29.08;;;14.48;;
42260;SDS011;27926;48.062;7.474;2023-02-07T10:35:42;26.65;;;13.23;;
42260;SDS011;27926;48.062;7.474;2023-02-07T10:38:20;29.52;;;13.15;;
42260;SDS011;27926;48.062;7.474;2023-02-07T10:41:16;21.83;;;12.40;;
42260;SDS011;27926;48.062;7.474;2023-02-07T10:43:45;23.15;;;12.85;;
42260;SDS011;27926;48.062;7.474;2023-02-07T10:46:12;26.48;;;13.10;;
42260;SDS011;27926;48.062;7.474;2023-02-07T10:48:43;20.98;;;11.45;;
42260;SDS011;27926;48.062;7.474;2023-02-07T10:51:13;29.43;;;13.03;;
42260;SDS011;27926;48.062;7.474;2023-02-07T10:54:05;24.45;;;12.50;;
42260;SDS011;27926;48.062;7.474;2023-02-07T10:56:33;24.13;;;12.32;;
42260;SDS011;27926;48.062;7.474;2023-02-07T10:59:03;28.27;;;12.80;;
42260;SDS011;27926;48.062;7.474;2023-02-07T11:01:29;30.97;;;13.13;;
42260;SDS011;27926;48.062;7.474;2023-02-07T11:03:55;27.02;;;13.55;;
42260;SDS011;27926;48.062;7.474;2023-02-07T11:06:30;26.48;;;13.20;;
42260;SDS011;27926;48.062;7.474;2023-02-07T11:09:10;25.83;;;13.27;;
42260;SDS011;27926;48.062;7.474;2023-02-07T11:11:35;25.67;;;12.77;;
42260;SDS011;27926;48.062;7.474;2023-02-07T11:14:03;22.70;;;12.38;;
42260;SDS011;27926;48.062;7.474;2023-02-07T11:16:30;25.88;;;13.00;;
42260;SDS011;27926;48.062;7.474;2023-02-07T11:18:58;23.67;;;12.87;;
42260;SDS011;27926;48.062;7.474;2023-02-07T11:21:43;28.67;;;13.95;;
42260;SDS011;27926;48.062;7.474;2023-02-07T11:24:18;25.20;;;12.45;;
42260;SDS011;27926;48.062;7.474;2023-02-07T11:29:28;26.02;;;14.07;;
42260;SDS011;27926;48.062;7.474;2023-02-07T11:31:55;32.17;;;15.23;;
42260;SDS011;27926;48.062;7.474;2023-02-07T11:36:52;26.58;;;14.32;;
42260;SDS011;27926;48.062;7.474;2023-02-07T11:39:18;32.60;;;15.63;;
42260;SDS011;27926;48.062;7.474;2023-02-07T11:44:44;28.08;;;13.77;;
42260;SDS011;27926;48.062;7.474;2023-02-07T11:47:14;26.98;;;14.45;;
42260;SDS011;27926;48.062;7.474;2023-02-07T11:49:53;24.48;;;13.93;;
42260;SDS011;27926;48.062;7.474;2023-02-07T11:52:23;30.55;;;14.88;;
42260;SDS011;27926;48.062;7.474;2023-02-07T11:54:50;29.33;;;15.45;;
42260;SDS011;27926;48.062;7.474;2023-02-07T11:57:21;34.70;;;14.57;;
42260;SDS011;27926;48.062;7.474;2023-02-07T12:02:30;31.65;;;15.05;;
42260;SDS011;27926;48.062;7.474;2023-02-07T12:05:07;31.10;;;15.02;;
42260;SDS011;27926;48.062;7.474;2023-02-07T12:07:41;27.10;;;14.27;;
42260;SDS011;27926;48.062;7.474;2023-02-07T12:10:18;32.90;;;15.25;;
42260;SDS011;27926;48.062;7.474;2023-02-07T12:12:47;29.23;;;15.82;;
42260;SDS011;27926;48.062;7.474;2023-02-07T12:20:30;31.88;;;15.02;;
42260;SDS011;27926;48.062;7.474;2023-02-07T12:23:17;32.40;;;14.38;;
42260;SDS011;27926;48.062;7.474;2023-02-07T12:29:05;36.47;;;16.33;;
42260;SDS011;27926;48.062;7.474;2023-02-07T12:34:22;32.88;;;15.95;;
42260;SDS011;27926;48.062;7.474;2023-02-07T12:36:57;25.70;;;14.55;;
42260;SDS011;27926;48.062;7.474;2023-02-07T12:42:44;31.92;;;15.75;;
42260;SDS011;27926;48.062;7.474;2023-02-07T12:45:15;29.42;;;15.05;;
42260;SDS011;27926;48.062;7.474;2023-02-07T12:47:49;27.10;;;14.88;;
42260;SDS011;27926;48.062;7.474;2023-02-07T12:52:51;45.70;;;15.75;;
42260;SDS011;27926;48.062;7.474;2023-02-07T12:58:31;23.05;;;13.50;;
42260;SDS011;27926;48.062;7.474;2023-02-07T13:01:27;29.13;;;14.68;;
42260;SDS011;27926;48.062;7.474;2023-02-07T13:06:33;32.30;;;15.38;;
42260;SDS011;27926;48.062;7.474;2023-02-07T13:09:05;24.40;;;14.05;;
42260;SDS011;27926;48.062;7.474;2023-02-07T13:20:25;29.05;;;14.90;;
42260;SDS011;27926;48.062;7.474;2023-02-07T13:23:03;22.70;;;13.57;;
42260;SDS011;27926;48.062;7.474;2023-02-07T13:25:37;27.70;;;13.80;;
42260;SDS011;27926;48.062;7.474;2023-02-07T13:28:06;31.38;;;13.80;;
42260;SDS011;27926;48.062;7.474;2023-02-07T13:30:36;28.98;;;14.38;;
42260;SDS011;27926;48.062;7.474;2023-02-07T13:36:21;26.85;;;13.13;;
42260;SDS011;27926;48.062;7.474;2023-02-07T13:53:09;30.33;;;14.73;;
42260;SDS011;27926;48.062;7.474;2023-02-07T13:55:43;26.48;;;13.55;;
42260;SDS011;27926;48.062;7.474;2023-02-07T14:01:24;24.08;;;12.65;;
42260;SDS011;27926;48.062;7.474;2023-02-07T14:06:55;30.70;;;14.05;;
42260;SDS011;27926;48.062;7.474;2023-02-07T14:11:56;27.23;;;12.30;;
42260;SDS011;27926;48.062;7.474;2023-02-07T14:14:32;35.85;;;14.70;;
42260;SDS011;27926;48.062;7.474;2023-02-07T14:22:18;29.00;;;13.95;;
42260;SDS011;27926;48.062;7.474;2023-02-07T14:32:41;30.98;;;13.50;;
42260;SDS011;27926;48.062;7.474;2023-02-07T14:40:17;23.50;;;13.15;;
42260;SDS011;27926;48.062;7.474;2023-02-07T14:42:55;24.80;;;13.35;;
42260;SDS011;27926;48.062;7.474;2023-02-07T14:45:58;26.02;;;12.60;;
42260;SDS011;27926;48.062;7.474;2023-02-07T14:48:31;24.88;;;13.63;;
42260;SDS011;27926;48.062;7.474;2023-02-07T14:51:11;26.92;;;12.93;;
42260;SDS011;27926;48.062;7.474;2023-02-07T14:59:31;24.15;;;12.63;;
42260;SDS011;27926;48.062;7.474;2023-02-07T15:05:33;22.98;;;12.40;;
42260;SDS011;27926;48.062;7.474;2023-02-07T15:10:30;28.23;;;13.30;;
42260;SDS011;27926;48.062;7.474;2023-02-07T15:13:05;25.35;;;12.93;;
42260;SDS011;27926;48.062;7.474;2023-02-07T15:15:46;27.25;;;14.25;;
42260;SDS011;27926;48.062;7.474;2023-02-07T15:18:16;24.58;;;12.80;;
42260;SDS011;27926;48.062;7.474;2023-02-07T15:20:46;21.65;;;11.93;;
42260;SDS011;27926;48.062;7.474;2023-02-07T15:23:16;27.70;;;13.13;;
42260;SDS011;27926;48.062;7.474;2023-02-07T15:25:42;26.02;;;13.23;;
42260;SDS011;27926;48.062;7.474;2023-02-07T15:31:21;24.83;;;13.30;;
42260;SDS011;27926;48.062;7.474;2023-02-07T15:33:47;22.98;;;13.02;;
42260;SDS011;27926;48.062;7.474;2023-02-07T15:38:49;24.65;;;13.38;;
42260;SDS011;27926;48.062;7.474;2023-02-07T15:41:14;31.90;;;14.57;;
42260;SDS011;27926;48.062;7.474;2023-02-07T15:43:51;27.13;;;14.18;;
42260;SDS011;27926;48.062;7.474;2023-02-07T15:46:19;26.00;;;13.00;;
42260;SDS011;27926;48.062;7.474;2023-02-07T15:48:45;23.80;;;13.40;;
42260;SDS011;27926;48.062;7.474;2023-02-07T15:51:12;24.92;;;13.93;;
42260;SDS011;27926;48.062;7.474;2023-02-07T15:53:38;31.75;;;15.63;;
42260;SDS011;27926;48.062;7.474;2023-02-07T15:56:03;22.42;;;12.73;;
42260;SDS011;27926;48.062;7.474;2023-02-07T15:58:33;21.65;;;11.80;;
42260;SDS011;27926;48.062;7.474;2023-02-07T16:01:00;23.98;;;12.07;;
42260;SDS011;27926;48.062;7.474;2023-02-07T16:03:27;25.95;;;12.73;;
42260;SDS011;27926;48.062;7.474;2023-02-07T16:06:07;21.52;;;12.20;;
42260;SDS011;27926;48.062;7.474;2023-02-07T16:08:44;32.65;;;13.93;;
42260;SDS011;27926;48.062;7.474;2023-02-07T16:18:51;28.52;;;13.45;;
42260;SDS011;27926;48.062;7.474;2023-02-07T16:21:31;31.10;;;14.70;;
42260;SDS011;27926;48.062;7.474;2023-02-07T16:24:04;35.33;;;14.83;;
42260;SDS011;27926;48.062;7.474;2023-02-07T16:26:31;24.63;;;12.77;;
42260;SDS011;27926;48.062;7.474;2023-02-07T16:28:59;27.02;;;13.00;;
42260;SDS011;27926;48.062;7.474;2023-02-07T16:31:23;31.05;;;14.65;;
42260;SDS011;27926;48.062;7.474;2023-02-07T16:33:48;27.17;;;13.87;;
42260;SDS011;27926;48.062;7.474;2023-02-07T16:36:14;27.65;;;13.95;;
42260;SDS011;27926;48.062;7.474;2023-02-07T16:38:40;32.83;;;14.40;;
42260;SDS011;27926;48.062;7.474;2023-02-07T16:41:05;29.20;;;14.20;;
42260;SDS011;27926;48.062;7.474;2023-02-07T16:43:35;42.88;;;20.35;;
42260;SDS011;27926;48.062;7.474;2023-02-07T16:46:02;41.35;;;23.17;;
42260;SDS011;27926;48.062;7.474;2023-02-07T16:48:28;36.17;;;15.85;;
42260;SDS011;27926;48.062;7.474;2023-02-07T16:50:52;23.30;;;13.07;;
42260;SDS011;27926;48.062;7.474;2023-02-07T16:53:17;24.20;;;13.20;;
42260;SDS011;27926;48.062;7.474;2023-02-07T16:55:41;24.65;;;12.88;;
42260;SDS011;27926;48.062;7.474;2023-02-07T16:58:06;30.03;;;14.27;;
42260;SDS011;27926;48.062;7.474;2023-02-07T17:00:31;26.77;;;14.97;;
42260;SDS011;27926;48.062;7.474;2023-02-07T17:02:56;30.90;;;14.00;;
42260;SDS011;27926;48.062;7.474;2023-02-07T17:05:21;40.60;;;14.70;;
42260;SDS011;27926;48.062;7.474;2023-02-07T17:07:46;31.52;;;13.45;;
42260;SDS011;27926;48.062;7.474;2023-02-07T17:10:15;25.55;;;13.00;;
42260;SDS011;27926;48.062;7.474;2023-02-07T17:12:52;29.80;;;12.13;;
42260;SDS011;27926;48.062;7.474;2023-02-07T17:15:17;32.60;;;13.20;;
42260;SDS011;27926;48.062;7.474;2023-02-07T17:17:41;18.60;;;9.70;;
42260;SDS011;27926;48.062;7.474;2023-02-07T17:20:25;21.53;;;10.90;;
42260;SDS011;27926;48.062;7.474;2023-02-07T17:22:51;28.92;;;12.30;;
42260;SDS011;27926;48.062;7.474;2023-02-07T17:25:17;23.43;;;11.80;;
42260;SDS011;27926;48.062;7.474;2023-02-07T17:27:43;26.77;;;12.65;;
42260;SDS011;27926;48.062;7.474;2023-02-07T17:32:38;28.83;;;14.02;;
42260;SDS011;27926;48.062;7.474;2023-02-07T17:35:02;24.80;;;12.77;;
42260;SDS011;27926;48.062;7.474;2023-02-07T17:37:27;28.30;;;13.93;;